Time;durP1;ratioP1;P1;durP2;ratioP2;P2;SDS_P1;SDS_P2;PMS_P1;PMS_P2;Temp;Humidity;BMP_temperature;BMP_pressure;BME280_temperature;BME280_humidity;BME280_pressure;Samples;Min_cycle;Max_cycle;Signal;HPM_P1;HPM_P2
2021/06/24 00:01:55;;;;;;;15.70;10.93;;;17.40;99.90;;;;;;4986572;28;20191;-84
2021/06/24 00:04:21;;;;;;;20.08;10.65;;;17.40;99.90;;;;;;4976815;28;20026;-84
2021/06/24 00:06:46;;;;;;;15.27;9.55;;;17.30;99.90;;;;;;4988733;28;20125;-84
2021/06/24 00:09:12;;;;;;;14.23;10.25;;;17.40;99.90;;;;;;4990013;28;20101;-84
2021/06/24 00:11:38;;;;;;;19.80;10.00;;;17.40;99.90;;;;;;4988678;28;20030;-84
2021/06/24 00:14:04;;;;;;;19.40;9.68;;;17.50;99.90;;;;;;4976843;28;20038;-85
2021/06/24 00:16:30;;;;;;;18.60;10.15;;;17.40;99.90;;;;;;4994321;28;20030;-84
2021/06/24 00:18:56;;;;;;;14.90;9.88;;;17.40;99.90;;;;;;4981874;28;20014;-84
2021/06/24 00:21:22;;;;;;;21.55;10.45;;;17.50;99.90;;;;;;4977747;28;20494;-84
2021/06/24 00:23:47;;;;;;;14.10;10.32;;;17.50;99.90;;;;;;4997225;28;20018;-84
2021/06/24 00:26:13;;;;;;;16.88;10.77;;;17.50;99.90;;;;;;5007286;28;20041;-84
2021/06/24 00:28:39;;;;;;;17.42;9.93;;;17.50;99.90;;;;;;5008364;28;20074;-84
2021/06/24 00:31:04;;;;;;;18.02;10.82;;;17.60;99.90;;;;;;5012025;28;20069;-85
2021/06/24 00:33:30;;;;;;;24.45;11.60;;;17.50;99.90;;;;;;4992029;28;20038;-84
2021/06/24 00:35:56;;;;;;;18.83;10.60;;;17.50;99.90;;;;;;5010499;28;20049;-85
2021/06/24 00:38:23;;;;;;;16.15;10.60;;;17.50;99.90;;;;;;5007370;28;20025;-84
2021/06/24 00:40:48;;;;;;;18.48;9.73;;;17.50;99.90;;;;;;5015058;28;20045;-84
2021/06/24 00:43:18;;;;;;;18.15;9.85;;;17.50;99.90;;;;;;5001425;28;20018;-84
2021/06/24 00:45:45;;;;;;;18.13;10.18;;;17.40;99.90;;;;;;5008829;28;20007;-85
2021/06/24 00:48:12;;;;;;;22.25;10.85;;;17.40;99.90;;;;;;5008410;28;20030;-84
2021/06/24 00:50:42;;;;;;;19.02;10.75;;;17.30;99.90;;;;;;5011414;28;20034;-84
2021/06/24 00:53:10;;;;;;;23.75;11.02;;;17.30;99.90;;;;;;4997988;28;20072;-84
2021/06/24 00:55:46;;;;;;;23.55;10.55;;;17.30;99.90;;;;;;4992305;28;20413;-84
2021/06/24 00:58:22;;;;;;;15.50;10.32;;;17.30;99.90;;;;;;4992661;28;20057;-84
2021/06/24 01:00:55;;;;;;;14.68;10.07;;;17.20;99.90;;;;;;4975196;28;20065;-84
2021/06/24 01:03:22;;;;;;;20.40;10.80;;;17.30;99.90;;;;;;4992982;28;20105;-84
2021/06/24 01:05:48;;;;;;;18.38;10.52;;;17.30;99.90;;;;;;4992756;28;20022;-85
2021/06/24 01:08:15;;;;;;;14.38;9.80;;;17.30;99.90;;;;;;4966823;28;20026;-85
2021/06/24 01:10:43;;;;;;;15.05;10.45;;;17.30;99.90;;;;;;4992403;28;20025;-85
2021/06/24 01:13:08;;;;;;;21.25;10.93;;;17.20;99.90;;;;;;4992874;28;20026;-85
2021/06/24 01:15:34;;;;;;;18.15;10.55;;;17.20;99.90;;;;;;4974865;28;20037;-85
2021/06/24 01:18:00;;;;;;;18.58;10.35;;;17.20;99.90;;;;;;4992715;28;20022;-84
2021/06/24 01:20:31;;;;;;;14.63;10.48;;;17.20;99.90;;;;;;4992567;28;20117;-85
2021/06/24 01:22:58;;;;;;;19.83;11.05;;;17.20;99.90;;;;;;4992490;28;20092;-85
2021/06/24 01:25:24;;;;;;;15.05;10.27;;;17.20;99.90;;;;;;4992190;28;20022;-85
2021/06/24 01:27:56;;;;;;;17.95;10.85;;;17.20;99.90;;;;;;4992395;28;20395;-85
2021/06/24 01:30:22;;;;;;;24.48;10.95;;;17.30;99.90;;;;;;4991993;28;20033;-85
2021/06/24 01:32:48;;;;;;;15.82;10.70;;;17.20;99.90;;;;;;4992283;28;20026;-84
2021/06/24 01:35:20;;;;;;;18.63;10.98;;;17.20;99.90;;;;;;4992143;28;20523;-84
2021/06/24 01:37:45;;;;;;;14.50;10.65;;;17.20;99.90;;;;;;4988858;28;20019;-85
2021/06/24 01:40:13;;;;;;;18.10;10.65;;;17.10;99.90;;;;;;4991927;28;20049;-85
2021/06/24 01:42:39;;;;;;;14.55;10.27;;;17.10;99.90;;;;;;4992705;28;20025;-85
2021/06/24 01:45:06;;;;;;;17.70;10.68;;;17.20;99.90;;;;;;4992256;28;20031;-85
2021/06/24 01:47:32;;;;;;;21.90;10.48;;;17.20;99.90;;;;;;4986371;28;20022;-85
2021/06/24 01:49:57;;;;;;;16.17;11.32;;;17.20;99.90;;;;;;4989996;28;20054;-85
2021/06/24 01:52:23;;;;;;;19.45;10.10;;;17.20;99.90;;;;;;4983969;28;20082;-85
2021/06/24 01:54:49;;;;;;;18.27;10.73;;;17.10;99.90;;;;;;4992164;28;20113;-84
2021/06/24 01:57:17;;;;;;;20.13;10.60;;;17.10;99.90;;;;;;4989999;28;20029;-85
2021/06/24 01:59:45;;;;;;;19.73;10.82;;;17.10;99.90;;;;;;4992280;28;20077;-85
2021/06/24 02:02:10;;;;;;;19.00;10.40;;;17.00;99.90;;;;;;4971745;28;20023;-84
2021/06/24 02:04:36;;;;;;;17.45;10.63;;;17.00;99.90;;;;;;4992008;28;20037;-85
2021/06/24 02:07:02;;;;;;;20.85;10.52;;;17.00;99.90;;;;;;4982852;28;20085;-85
2021/06/24 02:09:28;;;;;;;19.63;11.05;;;17.00;99.90;;;;;;4991751;28;20022;-85
2021/06/24 02:11:55;;;;;;;16.58;10.52;;;17.00;99.90;;;;;;4983120;28;20031;-84
2021/06/24 02:14:20;;;;;;;17.25;10.85;;;17.10;99.90;;;;;;4991777;28;20408;-85
2021/06/24 02:16:46;;;;;;;17.27;10.73;;;17.00;99.90;;;;;;4991902;28;20030;-85
2021/06/24 02:19:12;;;;;;;15.95;10.75;;;17.00;99.90;;;;;;4985433;28;20022;-84
2021/06/24 02:21:37;;;;;;;17.83;9.80;;;17.00;99.90;;;;;;4991100;28;20476;-85
2021/06/24 02:24:04;;;;;;;16.08;9.68;;;17.10;99.90;;;;;;4992050;28;20475;-84
2021/06/24 02:26:29;;;;;;;16.83;11.07;;;17.10;99.90;;;;;;4990600;28;20507;-84
2021/06/24 02:28:55;;;;;;;19.02;10.88;;;17.10;99.90;;;;;;4967015;28;20077;-85
2021/06/24 02:31:20;;;;;;;17.20;11.73;;;17.10;99.90;;;;;;4973494;28;20077;-84
2021/06/24 02:33:49;;;;;;;17.52;9.88;;;17.00;99.90;;;;;;4983287;28;20479;-84
2021/06/24 02:36:15;;;;;;;15.50;10.38;;;17.00;99.90;;;;;;4991347;28;20018;-85
2021/06/24 02:38:41;;;;;;;15.68;10.13;;;17.00;99.90;;;;;;4982919;28;20030;-85
2021/06/24 02:41:07;;;;;;;16.10;11.00;;;17.00;99.90;;;;;;4990975;28;20030;-85
2021/06/24 02:43:33;;;;;;;20.23;10.30;;;17.00;99.90;;;;;;4981548;28;20018;-85
2021/06/24 02:45:59;;;;;;;22.33;11.00;;;17.00;99.90;;;;;;4973238;28;20491;-84
2021/06/24 02:48:25;;;;;;;19.60;11.35;;;16.90;99.90;;;;;;4980729;28;20030;-84
2021/06/24 02:50:51;;;;;;;18.23;10.02;;;16.90;99.90;;;;;;4990953;28;20037;-85
2021/06/24 02:53:16;;;;;;;19.55;10.95;;;16.80;99.90;;;;;;4980276;28;20029;-85
2021/06/24 02:55:43;;;;;;;22.15;10.38;;;16.90;99.90;;;;;;4985791;28;20538;-85
2021/06/24 02:58:09;;;;;;;16.10;11.05;;;16.90;99.90;;;;;;4980407;28;20015;-85
2021/06/24 03:00:35;;;;;;;20.55;9.63;;;16.90;99.90;;;;;;4985505;28;20072;-84
2021/06/24 03:03:00;;;;;;;19.95;10.75;;;16.90;99.90;;;;;;4988945;28;20034;-85
2021/06/24 03:05:26;;;;;;;23.77;10.68;;;16.90;99.90;;;;;;4990882;28;20023;-85
2021/06/24 03:07:52;;;;;;;15.23;9.88;;;16.90;99.90;;;;;;4990094;28;20455;-84
2021/06/24 03:10:20;;;;;;;17.45;9.35;;;16.90;99.90;;;;;;4990760;28;20030;-84
2021/06/24 03:12:46;;;;;;;18.67;10.30;;;17.00;99.90;;;;;;4981785;28;20007;-84
2021/06/24 03:15:12;;;;;;;17.38;10.80;;;17.00;99.90;;;;;;4990526;28;20041;-85
2021/06/24 03:17:38;;;;;;;19.58;11.32;;;17.00;99.90;;;;;;4982064;28;20033;-84
2021/06/24 03:20:07;;;;;;;18.33;10.05;;;16.90;99.90;;;;;;4990482;28;20113;-85
2021/06/24 03:22:34;;;;;;;19.27;11.13;;;16.90;99.90;;;;;;4982427;28;20383;-85
2021/06/24 03:25:01;;;;;;;17.00;9.50;;;16.70;99.90;;;;;;4990620;28;20023;-84
2021/06/24 03:27:26;;;;;;;20.88;10.18;;;16.70;99.90;;;;;;4982087;28;20021;-85
2021/06/24 03:29:52;;;;;;;18.70;10.40;;;16.70;99.90;;;;;;4990880;28;20395;-84
2021/06/24 03:32:18;;;;;;;16.50;10.60;;;16.70;99.90;;;;;;4982022;28;20045;-84
2021/06/24 03:34:43;;;;;;;19.10;10.35;;;16.70;99.90;;;;;;4990550;28;20045;-84
2021/06/24 03:37:09;;;;;;;17.48;10.57;;;16.70;99.90;;;;;;4987962;28;20023;-84
2021/06/24 03:39:35;;;;;;;16.20;9.88;;;16.70;99.90;;;;;;4987050;28;20543;-85
2021/06/24 03:42:00;;;;;;;17.50;9.75;;;16.70;99.90;;;;;;4989287;28;20530;-84
2021/06/24 03:44:26;;;;;;;23.48;10.55;;;16.80;99.90;;;;;;4985309;28;20018;-84
2021/06/24 03:46:52;;;;;;;13.07;9.82;;;16.80;99.90;;;;;;4994351;28;20391;-84
2021/06/24 03:49:17;;;;;;;17.90;10.48;;;16.80;99.90;;;;;;4986888;28;20050;-84
2021/06/24 03:51:43;;;;;;;21.13;11.18;;;16.70;99.90;;;;;;4994712;28;20073;-85
2021/06/24 03:54:09;;;;;;;19.30;10.43;;;16.70;99.90;;;;;;4968738;28;20030;-85
2021/06/24 03:56:35;;;;;;;17.05;10.60;;;16.70;99.90;;;;;;4993732;28;20030;-84
2021/06/24 03:59:01;;;;;;;20.65;9.93;;;16.60;99.90;;;;;;4963870;28;20050;-84
2021/06/24 04:01:26;;;;;;;18.33;10.32;;;16.60;99.90;;;;;;4985218;28;20396;-84
2021/06/24 04:03:52;;;;;;;17.70;10.73;;;16.50;99.90;;;;;;4971855;28;20400;-84
2021/06/24 04:06:18;;;;;;;17.15;10.05;;;16.60;99.90;;;;;;4990475;28;20039;-84
2021/06/24 04:08:43;;;;;;;16.85;10.20;;;16.60;99.90;;;;;;4989569;28;20022;-85
2021/06/24 04:11:09;;;;;;;18.80;10.27;;;16.50;99.90;;;;;;4993658;28;20452;-84
2021/06/24 04:13:35;;;;;;;17.52;10.05;;;16.40;99.90;;;;;;4994085;28;20019;-85
2021/06/24 04:16:03;;;;;;;16.42;9.30;;;16.40;99.90;;;;;;4991753;28;20081;-84
2021/06/24 04:18:29;;;;;;;21.77;10.40;;;16.50;99.90;;;;;;4982675;28;20023;-85
2021/06/24 04:20:54;;;;;;;20.38;9.95;;;16.40;99.90;;;;;;4987151;28;20026;-85
2021/06/24 04:23:20;;;;;;;22.17;10.45;;;16.40;99.90;;;;;;4981488;28;20030;-85
2021/06/24 04:25:46;;;;;;;17.35;10.20;;;16.40;99.90;;;;;;4967247;28;20118;-85
2021/06/24 04:28:11;;;;;;;17.95;9.00;;;16.40;99.90;;;;;;4981591;28;20058;-85
2021/06/24 04:30:38;;;;;;;19.15;9.43;;;16.40;99.90;;;;;;4993425;28;20022;-85
2021/06/24 04:33:03;;;;;;;18.85;9.55;;;16.40;99.90;;;;;;4985319;28;20443;-85
2021/06/24 04:35:29;;;;;;;18.67;10.23;;;16.50;99.90;;;;;;4975896;28;20038;-84
2021/06/24 04:37:55;;;;;;;18.65;9.35;;;16.40;99.90;;;;;;4993707;28;20054;-85
2021/06/24 04:40:21;;;;;;;16.50;10.05;;;16.40;99.90;;;;;;4993533;28;20101;-84
2021/06/24 04:42:47;;;;;;;14.75;9.63;;;16.40;99.90;;;;;;4987422;28;20034;-84
2021/06/24 04:45:13;;;;;;;16.48;9.65;;;16.40;99.90;;;;;;4993942;28;20403;-85
2021/06/24 04:47:40;;;;;;;19.45;9.32;;;16.40;99.90;;;;;;4987849;28;20127;-84
2021/06/24 04:50:06;;;;;;;19.83;9.48;;;16.50;99.90;;;;;;4991958;28;20064;-85
2021/06/24 04:52:32;;;;;;;14.45;8.75;;;16.60;99.90;;;;;;4988372;28;20034;-85
2021/06/24 04:54:58;;;;;;;18.55;9.13;;;16.70;99.90;;;;;;4989533;28;20038;-84
2021/06/24 04:57:24;;;;;;;15.68;8.93;;;16.70;99.90;;;;;;4991147;28;20490;-84
2021/06/24 04:59:49;;;;;;;14.82;8.55;;;16.80;99.90;;;;;;4993415;28;20022;-84
2021/06/24 05:02:17;;;;;;;18.02;8.63;;;16.80;99.90;;;;;;4993174;28;20170;-85
2021/06/24 05:04:43;;;;;;;19.08;9.25;;;16.80;99.90;;;;;;4993345;28;20499;-84
2021/06/24 05:07:10;;;;;;;16.27;8.57;;;16.90;99.90;;;;;;4987881;28;20113;-84
2021/06/24 05:09:40;;;;;;;14.60;8.48;;;16.80;99.90;;;;;;4993360;28;20100;-84
2021/06/24 05:12:10;;;;;;;14.85;8.82;;;16.80;99.90;;;;;;4992900;28;20023;-85
2021/06/24 05:14:37;;;;;;;19.02;9.40;;;16.80;99.90;;;;;;4993125;28;20031;-84
2021/06/24 05:17:07;;;;;;;15.88;9.25;;;16.80;99.90;;;;;;4983990;28;20019;-84
2021/06/24 05:19:34;;;;;;;13.18;8.52;;;16.80;99.90;;;;;;4993210;28;20022;-84
2021/06/24 05:22:00;;;;;;;15.70;8.38;;;16.80;99.90;;;;;;4984043;28;20029;-85
2021/06/24 05:24:26;;;;;;;11.75;8.20;;;16.80;99.90;;;;;;4992694;28;20018;-84
2021/06/24 05:26:52;;;;;;;19.30;9.05;;;16.80;99.90;;;;;;4984319;28;20432;-84
2021/06/24 05:29:18;;;;;;;18.10;8.88;;;16.80;99.90;;;;;;4968647;28;20118;-84
2021/06/24 05:31:44;;;;;;;16.25;9.50;;;16.80;99.90;;;;;;4992416;28;20030;-85
2021/06/24 05:34:10;;;;;;;15.63;8.75;;;16.90;99.90;;;;;;4993047;28;20476;-88
2021/06/24 05:36:36;;;;;;;15.35;8.65;;;16.90;99.90;;;;;;4992242;28;20542;-86
2021/06/24 05:39:03;;;;;;;19.88;8.73;;;16.80;99.90;;;;;;4976306;28;20047;-87
2021/06/24 05:41:29;;;;;;;15.73;8.80;;;16.80;99.90;;;;;;4985062;28;20062;-87
2021/06/24 05:43:55;;;;;;;17.70;9.07;;;16.80;99.90;;;;;;4984285;28;20043;-86
2021/06/24 05:46:21;;;;;;;17.33;9.13;;;16.70;99.90;;;;;;4968296;28;20454;-87
2021/06/24 05:48:50;;;;;;;15.70;8.95;;;16.80;99.90;;;;;;4973168;28;20118;-87
2021/06/24 05:51:16;;;;;;;15.05;9.00;;;16.70;99.90;;;;;;4980122;28;20022;-87
2021/06/24 05:53:42;;;;;;;17.83;9.05;;;16.70;99.90;;;;;;4959763;28;20071;-86
2021/06/24 05:56:08;;;;;;;13.95;8.30;;;16.70;99.90;;;;;;4977724;28;20038;-87
2021/06/24 05:58:33;;;;;;;17.40;9.18;;;16.60;99.90;;;;;;4982906;28;20014;-87
2021/06/24 06:00:59;;;;;;;16.52;9.35;;;16.70;99.90;;;;;;4976369;28;20578;-87
2021/06/24 06:03:26;;;;;;;15.43;9.45;;;16.80;99.90;;;;;;4991137;28;20157;-87
2021/06/24 06:05:53;;;;;;;17.67;9.27;;;16.90;99.90;;;;;;4990486;28;20030;-88
2021/06/24 06:08:21;;;;;;;19.05;8.55;;;16.90;99.90;;;;;;4903700;28;20048;-87
2021/06/24 06:10:47;;;;;;;16.48;9.63;;;17.00;99.90;;;;;;4907787;29;20039;-87
2021/06/24 06:13:13;;;;;;;20.80;9.38;;;17.10;99.90;;;;;;4894162;29;20017;-86
2021/06/24 06:15:40;;;;;;;16.77;8.88;;;17.00;99.90;;;;;;4913879;29;20039;-87
2021/06/24 06:18:14;;;;;;;14.02;8.77;;;17.10;99.90;;;;;;4914048;29;20108;-87
2021/06/24 06:20:43;;;;;;;18.65;9.65;;;17.20;99.90;;;;;;4913864;29;20525;-87
2021/06/24 06:23:09;;;;;;;17.77;9.02;;;17.30;99.90;;;;;;4922602;29;20047;-88
2021/06/24 06:25:35;;;;;;;17.42;8.50;;;17.50;99.90;;;;;;4895822;29;20489;-87
2021/06/24 06:28:00;;;;;;;16.27;8.43;;;17.60;99.90;;;;;;4922902;29;20087;-87
2021/06/24 06:30:27;;;;;;;21.40;8.55;;;17.70;99.90;;;;;;4924943;29;20230;-88
2021/06/24 06:32:53;;;;;;;20.10;8.70;;;17.70;99.90;;;;;;4914231;29;20524;-88
2021/06/24 06:35:19;;;;;;;15.07;9.00;;;17.60;99.90;;;;;;4913664;29;20035;-88
2021/06/24 06:37:45;;;;;;;16.13;8.75;;;17.60;99.90;;;;;;4914298;29;20099;-88
2021/06/24 06:40:12;;;;;;;13.93;8.38;;;17.50;99.90;;;;;;4913910;29;20511;-87
2021/06/24 06:42:39;;;;;;;12.68;7.22;;;17.60;99.90;;;;;;4912942;29;20397;-88
2021/06/24 06:45:06;;;;;;;14.32;7.43;;;17.70;99.90;;;;;;4905720;29;20273;-82
2021/06/24 06:47:32;;;;;;;17.67;9.00;;;17.80;99.90;;;;;;4914657;29;20480;-81
2021/06/24 06:49:57;;;;;;;20.73;8.88;;;17.90;99.90;;;;;;4912070;29;20052;-77
2021/06/24 06:52:23;;;;;;;16.50;8.82;;;18.00;99.90;;;;;;4913398;29;20051;-75
2021/06/24 06:54:49;;;;;;;17.33;8.48;;;18.20;99.90;;;;;;4913175;29;20040;-75
2021/06/24 06:57:14;;;;;;;14.70;8.10;;;18.30;99.90;;;;;;4912669;29;20069;-74
2021/06/24 06:59:41;;;;;;;18.98;9.45;;;18.40;99.90;;;;;;4913350;29;20027;-74
2021/06/24 07:02:08;;;;;;;13.65;8.05;;;18.50;99.90;;;;;;4912850;29;20032;-74
2021/06/24 07:04:33;;;;;;;15.93;8.57;;;18.50;99.90;;;;;;4913563;29;20047;-75
2021/06/24 07:06:59;;;;;;;17.25;8.60;;;18.40;99.90;;;;;;4913023;29;20051;-75
2021/06/24 07:09:25;;;;;;;19.40;8.65;;;18.50;99.90;;;;;;4913515;29;20124;-74
2021/06/24 07:11:50;;;;;;;16.65;8.18;;;18.60;99.90;;;;;;4914907;29;20028;-75
2021/06/24 07:14:18;;;;;;;17.77;8.50;;;18.70;99.90;;;;;;4913361;29;20039;-75
2021/06/24 07:16:43;;;;;;;17.50;8.25;;;18.70;99.90;;;;;;4912747;29;20427;-74
2021/06/24 07:19:09;;;;;;;12.63;7.82;;;18.80;99.90;;;;;;4912933;29;20031;-74
2021/06/24 07:21:35;;;;;;;17.75;8.63;;;18.90;99.90;;;;;;4912662;29;20386;-74
2021/06/24 07:24:00;;;;;;;15.85;7.65;;;19.00;99.90;;;;;;4913626;29;20032;-77
2021/06/24 07:26:26;;;;;;;19.13;7.90;;;19.20;99.90;;;;;;4930689;29;20039;-75
2021/06/24 07:28:52;;;;;;;15.38;7.15;;;19.30;99.90;;;;;;4918520;29;20035;-75
2021/06/24 07:31:17;;;;;;;16.77;8.20;;;19.20;99.90;;;;;;4913269;29;20020;-75
2021/06/24 07:33:43;;;;;;;15.02;7.40;;;19.30;99.90;;;;;;4917830;29;20025;-75
2021/06/24 07:36:09;;;;;;;13.25;7.70;;;19.30;99.90;;;;;;4912776;29;20408;-75
2021/06/24 07:38:34;;;;;;;14.65;7.85;;;19.30;99.90;;;;;;4896533;29;20027;-75
2021/06/24 07:41:00;;;;;;;14.52;7.65;;;19.40;99.90;;;;;;4913577;29;20066;-75
2021/06/24 07:43:25;;;;;;;14.13;7.25;;;19.60;99.90;;;;;;4913363;29;20470;-75
2021/06/24 07:45:52;;;;;;;16.40;7.30;;;19.70;99.90;;;;;;4915537;29;20513;-75
2021/06/24 07:48:17;;;;;;;15.98;7.35;;;19.80;99.90;;;;;;4912988;29;20291;-75
2021/06/24 07:50:43;;;;;;;16.00;7.65;;;19.80;99.90;;;;;;4923806;29;20277;-75
2021/06/24 07:53:09;;;;;;;15.95;7.28;;;19.90;99.90;;;;;;4914741;29;20024;-75
2021/06/24 07:55:35;;;;;;;15.23;7.32;;;20.10;99.90;;;;;;4923248;29;20035;-76
2021/06/24 07:58:03;;;;;;;14.18;6.35;;;20.30;99.90;;;;;;4913445;29;20032;-75
2021/06/24 08:00:29;;;;;;;11.57;6.45;;;20.30;99.90;;;;;;4912359;29;20251;-75
2021/06/24 08:02:55;;;;;;;10.98;6.22;;;20.50;99.90;;;;;;4916094;29;20028;-76
2021/06/24 08:05:21;;;;;;;16.48;6.53;;;20.60;99.90;;;;;;4916209;29;20481;-75
2021/06/24 08:07:48;;;;;;;12.25;6.45;;;20.70;99.90;;;;;;4915127;29;20377;-75
2021/06/24 08:10:14;;;;;;;13.50;5.95;;;20.70;99.90;;;;;;4915369;29;20031;-76
2021/06/24 08:12:42;;;;;;;16.92;6.70;;;20.60;99.90;;;;;;4914439;29;20072;-75
2021/06/24 08:15:09;;;;;;;13.98;6.38;;;20.60;99.90;;;;;;4915280;29;20032;-76
2021/06/24 08:17:36;;;;;;;12.93;6.72;;;20.60;99.90;;;;;;4914479;29;20023;-75
2021/06/24 08:20:04;;;;;;;15.30;6.65;;;20.60;99.90;;;;;;4912654;29;20501;-76
2021/06/24 08:22:31;;;;;;;14.77;6.65;;;20.50;99.90;;;;;;4915908;29;20381;-75
2021/06/24 08:24:57;;;;;;;13.23;6.70;;;20.30;99.90;;;;;;4913038;29;20401;-75
2021/06/24 08:27:23;;;;;;;12.32;6.57;;;20.10;99.90;;;;;;4911974;29;20127;-76
2021/06/24 08:29:48;;;;;;;10.40;6.45;;;20.30;99.90;;;;;;4912364;29;20095;-76
2021/06/24 08:32:14;;;;;;;10.93;6.15;;;20.30;99.90;;;;;;4914588;29;20024;-77
2021/06/24 08:34:40;;;;;;;16.63;6.43;;;20.20;99.90;;;;;;4916346;29;20028;-76
2021/06/24 08:37:07;;;;;;;12.63;6.32;;;20.20;99.90;;;;;;4915484;29;20028;-76
2021/06/24 08:39:33;;;;;;;13.32;6.25;;;20.20;99.90;;;;;;4916336;29;20025;-76
2021/06/24 08:41:58;;;;;;;11.40;5.53;;;20.30;99.90;;;;;;4916446;29;20023;-77
2021/06/24 08:44:24;;;;;;;11.23;5.40;;;20.20;99.90;;;;;;4917238;29;20028;-76
2021/06/24 08:46:53;;;;;;;11.20;5.50;;;20.20;99.90;;;;;;4918601;29;20036;-76
2021/06/24 08:49:25;;;;;;;11.85;5.82;;;20.20;99.90;;;;;;4920191;29;20048;-76
2021/06/24 08:51:52;;;;;;;15.00;5.85;;;20.20;99.90;;;;;;4915539;29;20469;-76
2021/06/24 08:54:18;;;;;;;9.00;6.05;;;20.20;99.90;;;;;;4916182;29;20032;-76
2021/06/24 08:56:44;;;;;;;11.32;5.50;;;20.00;99.90;;;;;;4915358;29;20028;-76
2021/06/24 08:59:10;;;;;;;13.15;5.38;;;20.00;99.90;;;;;;4915911;29;20459;-76
2021/06/24 09:01:56;;;;;;;10.55;5.32;;;20.30;99.90;;;;;;4914998;29;20051;-76
2021/06/24 09:04:30;;;;;;;13.98;4.97;;;20.30;99.90;;;;;;4915590;29;20028;-76
2021/06/24 09:07:07;;;;;;;10.85;5.43;;;20.50;99.90;;;;;;4917060;29;20247;-76
2021/06/24 09:09:34;;;;;;;9.13;4.90;;;20.50;99.90;;;;;;4916009;29;20027;-76
2021/06/24 09:12:10;;;;;;;29.88;6.85;;;20.30;99.90;;;;;;4916644;29;20513;-76
2021/06/24 09:14:52;;;;;;;21.35;6.53;;;20.20;99.90;;;;;;4906104;29;20153;-77
2021/06/24 09:17:34;;;;;;;16.38;6.13;;;20.10;99.90;;;;;;4916683;29;20024;-76
2021/06/24 09:20:03;;;;;;;10.80;4.95;;;19.90;99.90;;;;;;4914851;29;20386;-76
2021/06/24 09:22:29;;;;;;;9.30;5.15;;;19.50;99.90;;;;;;4915181;29;20393;-76
2021/06/24 09:24:55;;;;;;;7.15;4.53;;;19.50;99.90;;;;;;4915280;29;20044;-76
2021/06/24 09:27:30;;;;;;;7.35;4.13;;;19.60;99.90;;;;;;4916941;29;20035;-75
2021/06/24 09:29:59;;;;;;;10.25;4.97;;;19.80;99.90;;;;;;4909612;29;20498;-75
2021/06/24 09:32:32;;;;;;;10.27;4.40;;;20.00;99.90;;;;;;4918229;29;20299;-75
2021/06/24 09:35:01;;;;;;;12.40;4.90;;;20.00;99.90;;;;;;4915496;29;20114;-74
2021/06/24 09:37:27;;;;;;;13.25;4.63;;;19.90;99.90;;;;;;4920898;29;20394;-74
2021/06/24 09:39:55;;;;;;;12.00;4.75;;;19.90;99.90;;;;;;4916486;29;20043;-74
2021/06/24 09:42:21;;;;;;;11.57;4.35;;;20.20;99.90;;;;;;4917653;29;20108;-73
2021/06/24 09:44:47;;;;;;;10.57;4.13;;;20.00;99.90;;;;;;4918055;29;20069;-74
2021/06/24 09:47:29;;;;;;;11.73;4.68;;;19.70;99.90;;;;;;4915803;29;20035;-75
2021/06/24 09:50:00;;;;;;;16.88;5.13;;;19.80;99.90;;;;;;4914504;29;20095;-75
2021/06/24 09:52:28;;;;;;;11.80;4.93;;;19.80;99.90;;;;;;4914982;29;20489;-75
2021/06/24 09:55:09;;;;;;;9.55;4.63;;;19.90;99.90;;;;;;4915014;29;20764;-75
2021/06/24 09:57:36;;;;;;;12.57;4.68;;;19.90;99.90;;;;;;4915178;29;20035;-74
2021/06/24 10:00:20;;;;;;;11.98;4.60;;;20.10;99.90;;;;;;4914672;29;20035;-75
2021/06/24 10:03:12;;;;;;;9.73;4.53;;;20.20;99.90;;;;;;4914074;29;20126;-76
2021/06/24 10:05:40;;;;;;;11.57;4.97;;;20.10;99.90;;;;;;4913954;29;20120;-76
2021/06/24 10:08:07;;;;;;;13.43;5.10;;;20.10;99.90;;;;;;4914550;29;20528;-77
2021/06/24 10:10:34;;;;;;;12.73;4.85;;;20.20;99.90;;;;;;4914140;29;20075;-77
2021/06/24 10:13:00;;;;;;;14.43;4.38;;;20.20;99.90;;;;;;4914682;29;20020;-76
2021/06/24 10:15:28;;;;;;;7.20;4.07;;;20.30;99.90;;;;;;4914005;29;20051;-77
2021/06/24 10:17:55;;;;;;;11.88;3.58;;;20.20;99.90;;;;;;4910968;29;20028;-77
2021/06/24 10:20:22;;;;;;;9.52;4.15;;;20.20;99.90;;;;;;4914006;29;20108;-77
2021/06/24 10:22:59;;;;;;;9.00;4.28;;;20.10;99.90;;;;;;4914288;29;20024;-77
2021/06/24 10:25:26;;;;;;;7.53;3.80;;;19.90;99.90;;;;;;4913934;29;20036;-78
2021/06/24 10:27:55;;;;;;;7.57;3.60;;;19.90;99.90;;;;;;4915873;29;20020;-78
2021/06/24 10:30:22;;;;;;;10.13;4.00;;;19.90;99.90;;;;;;4914104;29;20034;-77
2021/06/24 10:33:00;;;;;;;8.65;3.50;;;19.90;99.90;;;;;;4914517;29;20020;-78
2021/06/24 10:35:29;;;;;;;10.25;3.80;;;20.10;99.90;;;;;;4928464;29;20032;-78
2021/06/24 10:37:56;;;;;;;8.70;3.47;;;20.00;99.90;;;;;;4918363;29;20471;-78
2021/06/24 10:40:33;;;;;;;6.43;3.10;;;20.20;99.90;;;;;;4922428;29;20358;-77
2021/06/24 10:43:05;;;;;;;5.68;2.80;;;20.30;99.90;;;;;;4909667;29;20455;-78
2021/06/24 10:45:31;;;;;;;6.22;2.70;;;20.40;99.70;;;;;;4905941;29;20028;-78
2021/06/24 10:47:58;;;;;;;8.75;2.83;;;20.50;99.10;;;;;;4918448;29;20060;-77
2021/06/24 10:50:30;;;;;;;7.13;3.05;;;20.50;99.90;;;;;;4928793;29;20040;-77
2021/06/24 10:53:04;;;;;;;8.55;3.10;;;20.50;99.90;;;;;;4914132;29;20032;-78
2021/06/24 10:55:39;;;;;;;8.38;3.13;;;20.60;99.70;;;;;;4902690;29;20051;-75
2021/06/24 10:58:11;;;;;;;7.30;2.80;;;20.70;99.90;;;;;;4912743;29;20028;-79
2021/06/24 11:00:44;;;;;;;9.63;2.67;;;20.70;99.50;;;;;;4913716;29;20080;-78
2021/06/24 11:03:13;;;;;;;6.30;2.80;;;20.60;99.80;;;;;;4915540;29;20020;-79
2021/06/24 11:05:41;;;;;;;6.43;3.15;;;20.70;99.50;;;;;;4924280;29;20020;-78
2021/06/24 11:08:27;;;;;;;8.00;2.92;;;20.70;99.20;;;;;;4914006;29;20020;-78
2021/06/24 11:10:57;;;;;;;7.05;2.00;;;20.80;99.50;;;;;;4907965;29;20051;-79
2021/06/24 11:13:39;;;;;;;5.82;2.30;;;20.90;97.30;;;;;;4913864;29;20112;-79
2021/06/24 11:16:10;;;;;;;7.32;2.45;;;20.80;97.60;;;;;;4913460;29;20046;-79
2021/06/24 11:18:36;;;;;;;7.65;2.20;;;20.80;98.90;;;;;;4913731;29;20477;-79
2021/06/24 11:21:05;;;;;;;4.03;2.10;;;21.00;96.60;;;;;;4911965;29;20103;-78
2021/06/24 11:23:34;;;;;;;8.10;2.17;;;21.00;95.30;;;;;;4913825;29;20481;-79
2021/06/24 11:26:14;;;;;;;5.68;2.13;;;21.20;96.20;;;;;;4913872;29;20370;-79
2021/06/24 11:29:04;;;;;;;7.68;2.25;;;21.30;95.80;;;;;;4913544;29;20107;-79
2021/06/24 11:31:33;;;;;;;5.43;2.38;;;21.50;95.90;;;;;;4913280;29;20028;-79
2021/06/24 11:36:48;;;;;;;6.88;1.88;;;21.80;93.50;;;;;;4881411;29;20055;-79
2021/06/24 11:39:22;;;;;;;6.53;2.42;;;21.50;93.90;;;;;;4913865;29;20032;-80
2021/06/24 11:42:02;;;;;;;4.00;1.80;;;21.30;94.50;;;;;;4912927;29;20034;-79
2021/06/24 11:44:37;;;;;;;5.28;2.00;;;21.40;93.20;;;;;;4913002;29;20048;-79
2021/06/24 11:47:09;;;;;;;8.00;2.00;;;21.60;94.20;;;;;;4912789;29;20032;-79
2021/06/24 12:04:10;;;;;;;6.03;2.10;;;22.10;93.40;;;;;;4918154;29;20028;-78
2021/06/24 12:07:08;;;;;;;4.45;1.77;;;22.10;93.50;;;;;;4914109;29;20388;-79
2021/06/24 12:09:50;;;;;;;4.15;1.80;;;22.30;93.80;;;;;;4920521;29;20016;-78
2021/06/24 12:12:24;;;;;;;5.07;2.00;;;22.30;93.10;;;;;;4919670;29;20417;-79
2021/06/24 12:14:56;;;;;;;4.72;1.70;;;22.50;93.00;;;;;;4921740;29;20505;-78
2021/06/24 12:17:36;;;;;;;5.57;1.70;;;22.70;92.30;;;;;;4916487;29;20033;-79
2021/06/24 12:20:12;;;;;;;4.47;1.73;;;22.60;93.00;;;;;;4916288;29;20063;-78
2021/06/24 12:22:48;;;;;;;4.15;1.58;;;22.80;92.60;;;;;;4899703;29;20563;-78
2021/06/24 12:25:23;;;;;;;5.22;1.73;;;22.70;92.70;;;;;;4907171;29;20035;-78
2021/06/24 12:28:00;;;;;;;4.93;1.77;;;22.70;92.40;;;;;;4923835;29;20377;-79
2021/06/24 12:30:37;;;;;;;8.73;1.65;;;22.70;91.40;;;;;;4916314;29;20031;-79
2021/06/24 12:33:05;;;;;;;7.85;1.80;;;22.70;92.20;;;;;;4916259;29;20477;-79
2021/06/24 12:35:40;;;;;;;9.13;2.08;;;22.70;92.70;;;;;;4914635;29;20107;-79
2021/06/24 12:38:12;;;;;;;;;;;22.90;92.70;;;;;;4916921;29;20489;-79
2021/06/24 12:40:40;;;;;;;5.10;1.75;;;23.10;92.30;;;;;;4915563;29;19915;-79
2021/06/24 12:43:08;;;;;;;5.20;1.88;;;23.20;93.00;;;;;;4915827;29;20020;-79
2021/06/24 12:45:37;;;;;;;3.28;1.67;;;23.20;92.40;;;;;;4915108;29;20020;-79
2021/06/24 12:48:04;;;;;;;5.60;1.80;;;23.20;91.90;;;;;;4921577;29;20026;-79
2021/06/24 12:50:34;;;;;;;4.18;1.40;;;23.20;91.90;;;;;;4926302;29;20391;-79
2021/06/24 12:53:12;;;;;;;4.65;1.60;;;23.40;92.10;;;;;;4917840;29;20032;-79
2021/06/24 12:55:53;;;;;;;4.80;1.50;;;23.40;92.40;;;;;;4915449;29;20397;-79
2021/06/24 12:58:21;;;;;;;7.20;1.40;;;23.40;91.60;;;;;;4924378;29;20028;-79